createdAt,value
2022-08-17T00:02:22.428Z,18.45
2022-08-17T00:04:54.128Z,20.63
2022-08-17T00:07:21.094Z,19.17
2022-08-17T00:09:48.363Z,17.45
2022-08-17T00:12:42.278Z,17.67
2022-08-17T00:15:02.567Z,17.42
2022-08-17T00:17:29.481Z,17.30
2022-08-17T00:19:56.399Z,17.70
2022-08-17T00:22:34.400Z,13.63
2022-08-17T00:27:34.713Z,17.58
2022-08-17T00:30:01.686Z,17.13
2022-08-17T00:33:11.959Z,14.35
2022-08-17T00:35:17.700Z,14.98
2022-08-17T00:37:44.739Z,19.60
2022-08-17T00:40:13.337Z,19.35
2022-08-17T00:42:40.508Z,15.38
2022-08-17T00:45:08.191Z,16.08
2022-08-17T00:47:35.168Z,17.77
2022-08-17T00:50:02.447Z,16.17
2022-08-17T00:52:32.690Z,18.00
2022-08-17T00:54:59.752Z,14.30
2022-08-17T00:57:31.862Z,15.07
2022-08-17T01:00:03.526Z,15.50
2022-08-17T01:02:43.150Z,16.25
2022-08-17T01:05:19.708Z,15.35
2022-08-17T01:07:48.270Z,18.08
2022-08-17T01:11:00.038Z,14.93
2022-08-17T01:13:05.225Z,18.15
2022-08-17T01:15:33.578Z,15.80
2022-08-17T01:18:00.566Z,17.42
2022-08-17T01:20:27.563Z,15.95
2022-08-17T01:22:54.551Z,16.02
2022-08-17T01:25:21.626Z,15.95
2022-08-17T01:27:48.828Z,17.02
2022-08-17T01:30:58.018Z,14.98
2022-08-17T01:33:02.959Z,16.50
2022-08-17T01:35:29.924Z,16.58
2022-08-17T01:37:56.847Z,16.67
2022-08-17T01:40:46.786Z,16.63
2022-08-17T01:43:27.085Z,16.70
2022-08-17T01:46:03.395Z,17.90
2022-08-17T01:48:35.692Z,15.75
2022-08-17T01:51:02.684Z,15.63
2022-08-17T01:53:35.418Z,17.98
2022-08-17T01:56:13.432Z,17.67
2022-08-17T01:58:40.559Z,21.55
2022-08-17T02:01:09.504Z,20.05
2022-08-17T02:03:36.731Z,18.58
2022-08-17T02:06:05.198Z,17.88
2022-08-17T02:08:39.546Z,20.50
2022-08-17T02:11:22.835Z,20.77
2022-08-17T02:13:57.842Z,17.25
2022-08-17T02:19:10.331Z,18.60
2022-08-17T02:21:37.992Z,20.30
2022-08-17T02:24:06.809Z,18.83
2022-08-17T02:26:33.800Z,18.47
2022-08-17T02:29:00.784Z,16.58
2022-08-17T02:31:27.720Z,17.67
2022-08-17T02:34:00.209Z,17.58
2022-08-17T02:36:33.109Z,20.85
2022-08-17T02:39:01.761Z,23.50
2022-08-17T02:41:28.758Z,18.65
2022-08-17T02:43:55.671Z,19.65
2022-08-17T02:46:22.759Z,16.67
2022-08-17T02:48:49.771Z,18.55
2022-08-17T02:51:16.879Z,20.20
2022-08-17T02:53:44.019Z,16.48
2022-08-17T02:56:11.046Z,18.38
2022-08-17T02:58:37.978Z,17.25
2022-08-17T03:01:06.030Z,18.98
2022-08-17T03:03:33.060Z,18.45
2022-08-17T03:06:00.096Z,16.02
2022-08-17T03:08:27.345Z,17.27
2022-08-17T03:10:54.332Z,19.88
2022-08-17T03:13:21.710Z,17.65
2022-08-17T03:15:48.831Z,21.02
2022-08-17T03:18:24.257Z,17.73
2022-08-17T03:20:57.483Z,17.40
2022-08-17T03:23:25.366Z,19.27
2022-08-17T03:25:53.024Z,21.10
2022-08-17T03:28:21.056Z,16.50
2022-08-17T03:30:48.103Z,14.85
2022-08-17T03:33:15.176Z,20.65
2022-08-17T03:35:42.199Z,16.00
2022-08-17T03:38:10.255Z,18.88
2022-08-17T03:40:57.565Z,19.55
2022-08-17T03:43:24.652Z,16.90
2022-08-17T03:46:35.164Z,16.45
2022-08-17T03:49:25.300Z,18.15
2022-08-17T03:52:14.075Z,15.45
2022-08-17T03:55:00.219Z,16.40
2022-08-17T03:57:27.247Z,16.75
2022-08-17T03:59:55.003Z,16.20
2022-08-17T04:02:27.070Z,17.13
2022-08-17T04:04:54.326Z,15.80
2022-08-17T04:07:23.142Z,16.13
2022-08-17T04:09:50.307Z,13.68
2022-08-17T04:12:18.664Z,16.90
2022-08-17T04:14:53.365Z,16.75
2022-08-17T04:17:28.244Z,15.48
2022-08-17T04:19:55.534Z,14.70
2022-08-17T04:22:32.680Z,14.32
2022-08-17T04:25:08.502Z,14.52
2022-08-17T04:27:35.745Z,14.63
2022-08-17T04:30:02.730Z,15.57
2022-08-17T04:33:00.841Z,15.48
2022-08-17T04:35:21.106Z,14.98
2022-08-17T04:37:48.159Z,15.27
2022-08-17T04:40:33.660Z,13.68
2022-08-17T04:43:08.815Z,13.95
2022-08-17T04:45:54.903Z,13.10
2022-08-17T04:48:29.715Z,14.48
2022-08-17T04:51:07.807Z,14.40
2022-08-17T04:53:34.773Z,16.92
2022-08-17T04:56:01.757Z,16.27
2022-08-17T04:58:28.736Z,14.02
2022-08-17T05:00:55.736Z,16.08
2022-08-17T05:03:22.661Z,16.38
2022-08-17T05:05:49.987Z,15.50
2022-08-17T05:08:18.680Z,14.77
2022-08-17T05:10:45.924Z,15.80
2022-08-17T05:13:18.984Z,13.25
2022-08-17T05:15:47.710Z,15.55
2022-08-17T05:18:15.396Z,18.67
2022-08-17T05:20:42.403Z,17.02
2022-08-17T05:23:12.858Z,17.90
2022-08-17T05:25:42.049Z,17.63
2022-08-17T05:28:14.915Z,16.05
2022-08-17T05:30:43.295Z,14.57
2022-08-17T05:33:20.058Z,15.85
2022-08-17T05:35:48.358Z,19.40
2022-08-17T05:38:16.439Z,20.42
2022-08-17T05:40:43.826Z,15.07
2022-08-17T05:43:20.238Z,13.90
2022-08-17T05:46:03.985Z,14.18
2022-08-17T05:48:39.916Z,13.95
2022-08-17T05:51:39.400Z,14.48
2022-08-17T05:54:09.149Z,18.67
2022-08-17T05:59:24.156Z,16.33
2022-08-17T06:01:56.878Z,19.13
2022-08-17T06:04:35.652Z,17.17
2022-08-17T06:07:21.164Z,18.20
2022-08-17T06:09:57.194Z,15.90
2022-08-17T06:12:54.317Z,15.02
2022-08-17T06:15:43.891Z,16.23
2022-08-17T06:18:12.154Z,18.52
2022-08-17T06:21:01.635Z,17.50
2022-08-17T06:23:47.330Z,17.75
2022-08-17T06:26:37.280Z,18.63
2022-08-17T06:29:38.984Z,16.83
2022-08-17T06:32:06.358Z,17.90
2022-08-17T06:34:34.047Z,28.08
2022-08-17T06:37:22.128Z,31.50
2022-08-17T06:40:07.809Z,31.52
2022-08-17T06:43:05.777Z,32.10
2022-08-17T06:45:32.130Z,27.35
2022-08-17T06:48:24.907Z,35.92
2022-08-17T06:51:23.766Z,45.38
2022-08-17T06:54:11.279Z,52.10
2022-08-17T06:56:59.534Z,46.83
2022-08-17T06:59:54.626Z,43.92
2022-08-17T07:02:52.194Z,47.85
2022-08-17T07:05:23.056Z,47.65
2022-08-17T07:08:02.971Z,49.53
2022-08-17T07:10:37.134Z,46.50
2022-08-17T07:13:33.761Z,47.88
2022-08-17T07:16:17.910Z,51.60
2022-08-17T07:18:44.947Z,52.90
2022-08-17T07:21:34.019Z,50.95
2022-08-17T07:24:11.148Z,51.95
2022-08-17T07:27:10.858Z,50.53
2022-08-17T07:30:11.633Z,49.55
2022-08-17T07:32:45.279Z,53.38
2022-08-17T07:35:12.479Z,47.22
2022-08-17T07:37:54.524Z,43.22
2022-08-17T07:40:34.463Z,45.53
2022-08-17T07:43:25.425Z,43.00
2022-08-17T07:46:29.798Z,43.47
2022-08-17T07:48:59.016Z,42.28
2022-08-17T07:51:48.036Z,46.28
2022-08-17T07:54:22.534Z,50.20
2022-08-17T07:56:53.497Z,50.53
2022-08-17T07:59:23.031Z,53.25
2022-08-17T08:01:58.105Z,61.22
2022-08-17T08:05:02.027Z,54.40
2022-08-17T08:07:34.878Z,58.67
2022-08-17T08:10:25.633Z,58.15
2022-08-17T08:13:05.787Z,58.67
2022-08-17T08:15:39.693Z,57.80
2022-08-17T08:18:53.636Z,54.67
2022-08-17T08:21:21.416Z,56.72
2022-08-17T08:23:57.585Z,53.60
2022-08-17T08:26:46.524Z,58.85
2022-08-17T08:29:38.037Z,56.15
2022-08-17T08:32:42.939Z,62.20
2022-08-17T08:35:29.746Z,55.35
2022-08-17T08:38:17.876Z,61.53
2022-08-17T08:41:10.007Z,57.35
2022-08-17T08:43:55.132Z,64.93
2022-08-17T08:46:40.751Z,62.90
2022-08-17T08:49:58.958Z,57.72
2022-08-17T08:52:59.610Z,57.97
2022-08-17T08:55:47.647Z,54.58
2022-08-17T08:58:50.559Z,55.90
2022-08-17T09:01:28.124Z,51.67
2022-08-17T09:04:24.244Z,53.17
2022-08-17T09:07:07.796Z,53.15
2022-08-17T09:09:59.440Z,52.20
2022-08-17T09:12:34.690Z,52.58
2022-08-17T09:15:13.011Z,47.10
2022-08-17T09:18:14.674Z,49.47
2022-08-17T09:20:50.461Z,46.92
2022-08-17T09:23:35.556Z,47.17
2022-08-17T09:26:25.466Z,43.97
2022-08-17T09:28:55.943Z,37.72
2022-08-17T09:31:32.755Z,34.78
2022-08-17T09:34:00.310Z,42.53
2022-08-17T09:36:33.126Z,33.67
2022-08-17T09:39:24.173Z,37.95
2022-08-17T09:42:14.439Z,36.80
2022-08-17T09:44:52.853Z,38.38
2022-08-17T09:47:30.709Z,35.35
2022-08-17T09:50:09.743Z,32.33
2022-08-17T09:52:36.759Z,34.90
2022-08-17T09:55:04.005Z,33.42
2022-08-17T09:57:52.993Z,29.38
2022-08-17T10:00:20.184Z,31.35
2022-08-17T10:02:59.059Z,27.15
2022-08-17T10:05:48.477Z,25.65
2022-08-17T10:08:27.707Z,28.00
2022-08-17T10:13:39.089Z,29.00
2022-08-17T10:16:37.400Z,28.30
2022-08-17T10:19:22.069Z,29.80
2022-08-17T10:22:14.699Z,24.67
2022-08-17T10:25:23.669Z,21.70
2022-08-17T10:27:59.200Z,30.23
2022-08-17T10:30:28.276Z,31.27
2022-08-17T10:33:03.840Z,32.03
2022-08-17T10:35:45.255Z,29.35
2022-08-17T10:38:25.601Z,30.80
2022-08-17T10:41:04.181Z,26.70
2022-08-17T10:43:42.196Z,29.65
2022-08-17T10:46:39.835Z,32.47
2022-08-17T10:49:18.910Z,30.98
2022-08-17T10:51:53.603Z,29.88
2022-08-17T10:54:38.267Z,30.05
2022-08-17T10:57:23.655Z,26.75
2022-08-17T10:59:51.781Z,27.23
2022-08-17T11:02:33.499Z,24.52
2022-08-17T11:05:25.325Z,25.90
2022-08-17T11:08:23.644Z,24.40
2022-08-17T11:13:52.332Z,26.42
2022-08-17T11:16:50.301Z,30.38
2022-08-17T11:19:36.094Z,26.08
2022-08-17T11:22:10.470Z,26.65
2022-08-17T11:24:48.011Z,25.77
2022-08-17T11:27:27.978Z,20.75
2022-08-17T11:30:01.509Z,22.10
2022-08-17T11:32:54.408Z,21.80
2022-08-17T11:35:22.072Z,19.58
2022-08-17T11:37:51.896Z,23.83
2022-08-17T11:40:37.145Z,18.75
2022-08-17T11:43:33.428Z,18.20
2022-08-17T11:46:06.707Z,21.15
2022-08-17T11:49:08.496Z,19.42
2022-08-17T11:52:01.113Z,20.55
2022-08-17T11:54:33.351Z,20.38
2022-08-17T11:57:02.565Z,21.55
2022-08-17T11:59:46.031Z,18.30
2022-08-17T12:02:32.961Z,18.40
2022-08-17T12:05:12.491Z,20.85
2022-08-17T12:07:45.256Z,19.60
2022-08-17T12:10:13.193Z,20.65
2022-08-17T12:12:43.803Z,22.83
2022-08-17T12:15:19.076Z,23.05
2022-08-17T12:17:53.699Z,21.35
2022-08-17T12:20:24.176Z,20.75
2022-08-17T12:23:09.679Z,24.10
2022-08-17T12:25:52.978Z,21.77
2022-08-17T12:28:26.355Z,22.02
2022-08-17T12:30:53.390Z,19.75
2022-08-17T12:33:27.720Z,21.65
2022-08-17T12:36:07.573Z,19.73
2022-08-17T12:38:36.356Z,23.90
2022-08-17T12:41:24.837Z,20.77
2022-08-17T12:44:14.584Z,23.17
2022-08-17T12:47:04.728Z,17.70
2022-08-17T12:49:39.447Z,22.55
2022-08-17T12:52:27.655Z,24.38
2022-08-17T12:54:59.718Z,18.27
2022-08-17T12:57:34.893Z,18.98
2022-08-17T13:00:17.876Z,23.25
2022-08-17T13:02:52.246Z,19.67
2022-08-17T13:05:23.743Z,17.13
2022-08-17T13:07:51.113Z,18.65
2022-08-17T13:10:27.398Z,17.88
2022-08-17T13:12:58.170Z,19.88
2022-08-17T13:15:32.876Z,19.10
2022-08-17T13:18:09.152Z,17.02
2022-08-17T13:20:36.200Z,17.00
2022-08-17T13:23:12.003Z,17.08
2022-08-17T13:25:39.720Z,15.55
2022-08-17T13:28:06.644Z,18.73
2022-08-17T13:30:33.916Z,16.33
2022-08-17T13:33:20.973Z,15.88
2022-08-17T13:36:07.006Z,16.35
2022-08-17T13:38:47.395Z,16.25
2022-08-17T13:41:34.911Z,16.30
2022-08-17T13:44:01.999Z,16.40
2022-08-17T13:46:31.410Z,18.27
2022-08-17T13:49:05.224Z,15.48
2022-08-17T13:51:36.795Z,13.55
2022-08-17T13:54:05.799Z,11.93
2022-08-17T13:56:45.392Z,15.40
2022-08-17T13:59:17.287Z,12.18
2022-08-17T14:02:05.170Z,10.60
2022-08-17T14:04:32.661Z,10.68
2022-08-17T14:07:08.615Z,9.85
2022-08-17T14:09:54.910Z,9.40
2022-08-17T14:12:25.080Z,8.90
2022-08-17T14:14:52.628Z,8.63
2022-08-17T14:17:19.618Z,10.30
2022-08-17T14:19:46.616Z,9.52
2022-08-17T14:22:40.835Z,7.88
2022-08-17T14:25:10.531Z,7.10
2022-08-17T14:27:52.289Z,9.60
2022-08-17T14:30:25.410Z,8.10
2022-08-17T14:32:52.936Z,8.27
2022-08-17T14:35:22.367Z,8.45
2022-08-17T14:37:50.375Z,7.30
2022-08-17T14:40:20.817Z,8.45
2022-08-17T14:42:48.266Z,6.00
2022-08-17T14:45:31.494Z,9.02
2022-08-17T14:48:04.267Z,8.77
2022-08-17T14:50:31.714Z,6.75
2022-08-17T14:52:59.182Z,7.50
2022-08-17T14:55:28.484Z,7.68
2022-08-17T14:57:55.504Z,6.60
2022-08-17T15:00:22.650Z,9.32
2022-08-17T15:02:54.554Z,8.43
2022-08-17T15:05:23.353Z,7.13
2022-08-17T15:07:50.745Z,6.95
2022-08-17T15:10:18.051Z,8.93
2022-08-17T15:12:45.584Z,7.78
2022-08-17T15:15:14.512Z,7.50
2022-08-17T15:17:46.017Z,8.57
2022-08-17T15:20:18.685Z,7.97
2022-08-17T15:22:46.495Z,9.23
2022-08-17T15:25:13.583Z,11.00
2022-08-17T15:27:40.714Z,10.40
2022-08-17T15:30:08.685Z,11.13
2022-08-17T15:32:38.192Z,9.35
2022-08-17T15:35:05.929Z,10.50
2022-08-17T15:37:33.547Z,8.38
2022-08-17T15:40:01.321Z,9.02
2022-08-17T15:42:29.409Z,9.15
2022-08-17T15:44:56.379Z,7.95
2022-08-17T15:47:23.542Z,9.23
2022-08-17T15:49:51.020Z,7.90
2022-08-17T15:52:23.087Z,9.43
2022-08-17T15:54:58.405Z,8.93
2022-08-17T15:57:26.077Z,8.57
2022-08-17T15:59:58.964Z,10.50
2022-08-17T16:03:45.261Z,12.07
2022-08-17T16:05:24.789Z,10.35
2022-08-17T16:07:52.593Z,13.77
2022-08-17T16:10:19.896Z,8.50
2022-08-17T16:12:47.859Z,8.77
2022-08-17T16:15:14.987Z,8.45
2022-08-17T16:17:43.230Z,8.52
2022-08-17T16:20:20.097Z,5.50
2022-08-17T16:22:48.378Z,7.22
2022-08-17T16:25:18.798Z,8.38
2022-08-17T16:27:46.570Z,8.70
2022-08-17T16:30:17.356Z,7.63
2022-08-17T16:32:45.314Z,8.88
2022-08-17T16:35:12.637Z,6.90
2022-08-17T16:37:41.809Z,7.93
2022-08-17T16:40:13.152Z,8.20
2022-08-17T16:42:42.955Z,9.48
2022-08-17T16:45:16.908Z,10.60
2022-08-17T16:47:45.298Z,7.53
2022-08-17T16:50:15.292Z,7.95
2022-08-17T16:52:42.540Z,7.10
2022-08-17T16:55:10.213Z,7.75
2022-08-17T16:57:47.612Z,8.65
2022-08-17T17:00:18.078Z,7.43
2022-08-17T17:02:48.177Z,8.50
2022-08-17T17:05:56.207Z,9.50
2022-08-17T17:08:32.236Z,9.60
2022-08-17T17:11:00.626Z,8.95
2022-08-17T17:13:40.619Z,8.55
2022-08-17T17:16:26.418Z,9.73
2022-08-17T17:19:34.938Z,12.02
2022-08-17T17:22:07.589Z,10.05
2022-08-17T17:24:58.682Z,9.98
2022-08-17T17:27:38.314Z,10.88
2022-08-17T17:30:18.231Z,11.60
2022-08-17T17:32:46.386Z,10.52
2022-08-17T17:35:20.555Z,9.32
2022-08-17T17:37:47.941Z,10.45
2022-08-17T17:40:25.266Z,11.10
2022-08-17T17:42:53.139Z,10.80
2022-08-17T17:45:26.088Z,10.55
2022-08-17T17:47:53.572Z,9.57
2022-08-17T17:50:21.891Z,10.25
2022-08-17T17:53:02.211Z,10.48
2022-08-17T17:55:34.562Z,13.20
2022-08-17T17:58:19.723Z,13.35
2022-08-17T18:01:24.520Z,10.82
2022-08-17T18:04:11.208Z,11.05
2022-08-17T18:06:57.153Z,13.95
2022-08-17T18:10:01.758Z,14.20
2022-08-17T18:12:48.089Z,13.20
2022-08-17T18:15:24.428Z,12.20
2022-08-17T18:18:15.178Z,11.32
2022-08-17T18:20:53.421Z,11.70
2022-08-17T18:23:27.089Z,14.63
2022-08-17T18:25:55.613Z,13.13
2022-08-17T18:28:32.451Z,12.35
2022-08-17T18:31:17.529Z,13.00
2022-08-17T18:33:49.266Z,15.10
2022-08-17T18:36:32.906Z,15.48
2022-08-17T18:39:17.219Z,13.25
2022-08-17T18:41:46.161Z,17.48
2022-08-17T18:44:25.911Z,13.52
2022-08-17T18:47:15.592Z,13.27
2022-08-17T18:49:44.043Z,14.10
2022-08-17T18:52:12.967Z,11.00
2022-08-17T18:54:40.064Z,14.32
2022-08-17T18:57:07.661Z,14.38
2022-08-17T18:59:36.040Z,16.13
2022-08-17T19:02:18.183Z,17.92
2022-08-17T19:05:00.623Z,15.70
2022-08-17T19:07:42.056Z,17.27
2022-08-17T19:10:24.517Z,17.20
2022-08-17T19:13:24.033Z,15.15
2022-08-17T19:16:12.338Z,14.38
2022-08-17T19:19:09.962Z,14.50
2022-08-17T19:21:59.090Z,15.40
2022-08-17T19:24:27.526Z,14.68
2022-08-17T19:27:24.085Z,14.75
2022-08-17T19:29:52.474Z,17.10
2022-08-17T19:32:25.168Z,11.07
2022-08-17T19:34:52.393Z,13.07
2022-08-17T19:37:37.439Z,14.95
2022-08-17T19:40:35.055Z,12.32
2022-08-17T19:43:15.504Z,12.07
2022-08-17T19:45:51.443Z,13.15
2022-08-17T19:48:24.033Z,11.07
2022-08-17T19:50:55.437Z,11.57
2022-08-17T19:54:05.031Z,11.02
2022-08-17T19:57:09.411Z,11.75
2022-08-17T19:59:59.021Z,11.98
2022-08-17T20:02:38.149Z,10.77
2022-08-17T20:05:21.285Z,15.32
2022-08-17T20:07:51.271Z,13.20
2022-08-17T20:10:41.095Z,18.70
2022-08-17T20:13:50.373Z,14.85
2022-08-17T20:16:17.634Z,12.82
2022-08-17T20:19:20.052Z,15.65
2022-08-17T20:22:00.588Z,11.93
2022-08-17T20:24:27.580Z,10.73
2022-08-17T20:26:59.885Z,17.27
2022-08-17T20:29:39.715Z,15.05
2022-08-17T20:32:15.287Z,13.55
2022-08-17T20:34:44.590Z,12.55
2022-08-17T20:37:14.696Z,13.63
2022-08-17T20:39:44.068Z,14.18
2022-08-17T20:42:20.213Z,16.20
2022-08-17T20:45:23.450Z,14.18
2022-08-17T20:48:33.318Z,15.88
2022-08-17T20:50:57.131Z,14.07
2022-08-17T20:53:55.010Z,16.63
2022-08-17T20:56:43.580Z,15.23
2022-08-17T20:59:26.084Z,18.25
2022-08-17T21:02:20.153Z,17.58
2022-08-17T21:05:00.361Z,17.55
2022-08-17T21:07:43.215Z,14.38
2022-08-17T21:10:15.245Z,19.35
2022-08-17T21:12:50.543Z,18.17
2022-08-17T21:15:37.896Z,15.90
2022-08-17T21:18:30.088Z,16.85
2022-08-17T21:21:27.320Z,17.13
2022-08-17T21:24:12.878Z,14.40
2022-08-17T21:26:56.761Z,14.43
2022-08-17T21:29:31.270Z,13.85
2022-08-17T21:32:02.758Z,13.93
2022-08-17T21:34:34.960Z,15.82
2022-08-17T21:37:20.221Z,12.82
2022-08-17T21:39:52.649Z,16.70
2022-08-17T21:42:31.698Z,14.00
2022-08-17T21:45:29.183Z,17.83
2022-08-17T21:48:17.564Z,17.05
2022-08-17T21:50:57.954Z,14.93
2022-08-17T21:53:32.716Z,13.07
2022-08-17T21:56:00.065Z,15.30
2022-08-17T21:58:40.211Z,13.68
2022-08-17T22:01:11.491Z,14.23
2022-08-17T22:03:38.813Z,14.70
2022-08-17T22:06:23.186Z,14.48
2022-08-17T22:09:06.237Z,17.17
2022-08-17T22:11:52.594Z,15.77
2022-08-17T22:14:53.243Z,13.75
2022-08-17T22:17:19.559Z,14.30
2022-08-17T22:19:48.988Z,18.88
2022-08-17T22:22:21.920Z,19.75
2022-08-17T22:24:59.912Z,19.00
2022-08-17T22:27:45.885Z,15.88
2022-08-17T22:30:42.941Z,12.55
2022-08-17T22:33:51.438Z,16.90
2022-08-17T22:36:51.042Z,20.63
2022-08-17T22:42:13.826Z,14.82
2022-08-17T22:44:48.734Z,14.43
2022-08-17T22:47:17.183Z,13.57
2022-08-17T22:49:57.995Z,15.60
2022-08-17T22:52:32.533Z,15.27
2022-08-17T22:55:26.233Z,15.40
2022-08-17T22:58:11.744Z,14.73
2022-08-17T23:00:57.043Z,14.77
2022-08-17T23:03:25.751Z,14.20
2022-08-17T23:06:06.698Z,16.13
2022-08-17T23:08:36.079Z,14.10
2022-08-17T23:11:03.035Z,15.07
2022-08-17T23:13:33.505Z,14.65
2022-08-17T23:16:00.550Z,16.38
2022-08-17T23:18:27.601Z,14.65
2022-08-17T23:20:54.569Z,15.18
2022-08-17T23:23:23.987Z,15.18
2022-08-17T23:25:51.025Z,13.07
2022-08-17T23:28:18.067Z,13.30
2022-08-17T23:30:46.597Z,12.73
2022-08-17T23:33:19.645Z,10.77
2022-08-17T23:35:46.647Z,15.43
2022-08-17T23:38:13.676Z,13.77
2022-08-17T23:40:40.967Z,11.65
2022-08-17T23:43:25.504Z,13.48
2022-08-17T23:45:57.586Z,10.68
2022-08-17T23:48:30.359Z,9.98
2022-08-17T23:51:09.215Z,13.43
2022-08-17T23:53:36.787Z,10.80
2022-08-17T23:56:09.802Z,12.27
2022-08-17T23:58:38.676Z,14.70
